createdAt,value
2023-10-26T00:01:23.696Z,19.73
2023-10-26T00:03:51.874Z,19.00
2023-10-26T00:06:20.215Z,18.23
2023-10-26T00:08:49.736Z,18.05
2023-10-26T00:11:17.785Z,18.10
2023-10-26T00:13:45.875Z,19.00
2023-10-26T00:16:14.320Z,24.67
2023-10-26T00:18:42.372Z,22.10
2023-10-26T00:21:10.495Z,20.35
2023-10-26T00:23:38.878Z,20.05
2023-10-26T00:26:08.305Z,27.45
2023-10-26T00:28:36.447Z,24.02
2023-10-26T00:31:04.652Z,23.25
2023-10-26T00:33:32.753Z,25.20
2023-10-26T00:36:00.873Z,25.20
2023-10-26T00:38:29.030Z,24.40
2023-10-26T00:40:57.370Z,24.38
2023-10-26T00:43:26.907Z,24.60
2023-10-26T00:45:55.636Z,22.23
2023-10-26T00:48:25.138Z,21.17
2023-10-26T00:50:54.001Z,24.73
2023-10-26T00:53:23.112Z,22.27
2023-10-26T00:55:53.363Z,20.33
2023-10-26T00:58:23.132Z,19.60
2023-10-26T01:00:52.731Z,18.80
2023-10-26T01:03:21.603Z,20.73
2023-10-26T01:05:49.871Z,16.23
2023-10-26T01:08:19.527Z,17.63
2023-10-26T01:10:48.596Z,15.10
2023-10-26T01:13:17.326Z,17.00
2023-10-26T01:15:45.775Z,16.08
2023-10-26T01:18:15.243Z,15.10
2023-10-26T01:20:43.790Z,15.30
2023-10-26T01:23:13.461Z,15.85
2023-10-26T01:25:41.788Z,18.77
2023-10-26T01:28:09.937Z,18.67
2023-10-26T01:30:38.090Z,16.80
2023-10-26T01:33:06.346Z,19.80
2023-10-26T01:35:39.560Z,19.65
2023-10-26T01:38:07.860Z,17.40
2023-10-26T01:40:37.285Z,18.85
2023-10-26T01:43:05.402Z,16.17
2023-10-26T01:45:33.670Z,21.80
2023-10-26T01:48:03.707Z,18.02
2023-10-26T01:50:33.685Z,13.90
2023-10-26T01:53:01.790Z,16.13
2023-10-26T01:55:29.817Z,15.02
2023-10-26T01:58:00.135Z,19.10
2023-10-26T02:00:28.365Z,16.48
2023-10-26T02:02:57.325Z,16.83
2023-10-26T02:05:27.152Z,15.23
2023-10-26T02:07:55.329Z,18.52
2023-10-26T02:10:25.047Z,16.17
2023-10-26T02:12:53.168Z,19.13
2023-10-26T02:15:22.797Z,21.17
2023-10-26T02:17:51.201Z,20.00
2023-10-26T02:20:19.425Z,20.53
2023-10-26T02:22:48.020Z,18.42
2023-10-26T02:25:16.610Z,15.95
2023-10-26T02:27:45.311Z,17.60
2023-10-26T02:30:15.023Z,15.73
2023-10-26T02:32:44.591Z,16.98
2023-10-26T02:35:13.959Z,16.35
2023-10-26T02:37:42.049Z,15.48
2023-10-26T02:40:11.003Z,16.55
2023-10-26T02:42:40.097Z,16.07
2023-10-26T02:45:09.962Z,14.52
2023-10-26T02:47:38.929Z,13.80
2023-10-26T02:50:10.377Z,13.33
2023-10-26T02:52:39.128Z,14.27
2023-10-26T02:55:08.631Z,17.58
2023-10-26T02:57:36.850Z,15.48
2023-10-26T03:00:06.222Z,13.15
2023-10-26T03:02:34.433Z,13.20
2023-10-26T03:05:03.425Z,14.68
2023-10-26T03:07:32.857Z,12.63
2023-10-26T03:10:01.041Z,16.52
2023-10-26T03:12:29.327Z,16.55
2023-10-26T03:14:57.427Z,14.03
2023-10-26T03:17:25.500Z,13.35
2023-10-26T03:19:53.839Z,15.63
2023-10-26T03:22:22.543Z,12.30
2023-10-26T03:24:53.287Z,13.67
2023-10-26T03:27:21.581Z,15.57
2023-10-26T03:29:49.695Z,13.38
2023-10-26T03:32:18.706Z,13.50
2023-10-26T03:34:45.911Z,15.20
2023-10-26T03:37:14.832Z,16.48
2023-10-26T03:39:42.956Z,14.50
2023-10-26T03:42:12.429Z,16.48
2023-10-26T03:44:40.507Z,17.67
2023-10-26T03:47:10.927Z,14.70
2023-10-26T03:49:39.441Z,17.23
2023-10-26T03:52:08.102Z,14.65
2023-10-26T03:54:36.206Z,14.93
2023-10-26T03:57:04.705Z,13.43
2023-10-26T03:59:34.182Z,13.55
2023-10-26T04:02:02.302Z,16.10
2023-10-26T04:04:30.489Z,14.32
2023-10-26T04:06:58.560Z,14.25
2023-10-26T04:09:26.707Z,14.77
2023-10-26T04:11:54.828Z,15.45
2023-10-26T04:14:22.920Z,13.90
2023-10-26T04:16:52.364Z,15.63
2023-10-26T04:19:20.436Z,16.85
2023-10-26T04:21:48.510Z,16.98
2023-10-26T04:24:16.713Z,15.75
2023-10-26T04:26:45.011Z,17.85
2023-10-26T04:29:13.060Z,16.80
2023-10-26T04:31:41.194Z,17.48
2023-10-26T04:34:10.672Z,18.58
2023-10-26T04:36:38.776Z,16.50
2023-10-26T04:39:09.335Z,20.35
2023-10-26T04:41:37.634Z,17.98
2023-10-26T04:44:06.748Z,18.85
2023-10-26T04:46:34.920Z,19.13
2023-10-26T04:49:03.100Z,21.40
2023-10-26T04:51:33.533Z,17.67
2023-10-26T04:54:01.777Z,19.90
2023-10-26T04:56:30.090Z,19.13
2023-10-26T04:58:58.122Z,20.30
2023-10-26T05:01:26.336Z,18.90
2023-10-26T05:03:54.591Z,23.67
2023-10-26T05:06:22.852Z,22.50
2023-10-26T05:08:52.386Z,18.98
2023-10-26T05:11:21.400Z,22.20
2023-10-26T05:13:53.477Z,20.40
2023-10-26T05:16:21.982Z,18.13
2023-10-26T05:18:50.200Z,20.92
2023-10-26T05:21:18.407Z,21.23
2023-10-26T05:23:48.450Z,19.90
2023-10-26T05:26:17.960Z,25.80
2023-10-26T05:28:46.255Z,23.17
2023-10-26T05:31:14.326Z,21.25
2023-10-26T05:33:43.168Z,23.05
2023-10-26T05:36:11.344Z,25.83
2023-10-26T05:38:39.474Z,24.92
2023-10-26T05:41:07.768Z,21.98
2023-10-26T05:43:37.170Z,23.40
2023-10-26T05:46:06.555Z,23.10
2023-10-26T05:48:35.368Z,24.02
2023-10-26T05:51:03.816Z,22.90
2023-10-26T05:53:32.099Z,25.60
2023-10-26T05:56:00.936Z,22.15
2023-10-26T05:58:29.351Z,23.38
2023-10-26T06:00:59.135Z,22.42
2023-10-26T06:03:27.339Z,25.33
2023-10-26T06:06:00.884Z,23.67
2023-10-26T06:08:29.554Z,24.65
2023-10-26T06:10:59.042Z,22.15
2023-10-26T06:13:27.608Z,25.43
2023-10-26T06:15:55.822Z,28.23
2023-10-26T06:18:25.369Z,30.13
2023-10-26T06:21:00.339Z,26.58
2023-10-26T06:23:29.807Z,28.90
2023-10-26T06:26:01.332Z,31.87
2023-10-26T06:28:30.549Z,31.17
2023-10-26T06:31:09.272Z,27.40
2023-10-26T06:33:39.306Z,26.55
2023-10-26T06:36:08.825Z,30.77
2023-10-26T06:38:36.943Z,27.85
2023-10-26T06:41:05.437Z,27.73
2023-10-26T06:43:33.514Z,31.08
2023-10-26T06:46:01.823Z,32.30
2023-10-26T06:48:30.020Z,29.87
2023-10-26T06:51:04.129Z,29.75
2023-10-26T06:53:32.333Z,31.42
2023-10-26T06:56:00.613Z,31.77
2023-10-26T06:58:28.870Z,29.90
2023-10-26T07:00:57.126Z,30.45
2023-10-26T07:03:25.744Z,30.35
2023-10-26T07:05:54.361Z,30.83
2023-10-26T07:08:23.821Z,26.98
2023-10-26T07:10:51.910Z,30.45
2023-10-26T07:13:19.949Z,29.67
2023-10-26T07:15:48.235Z,30.60
2023-10-26T07:18:16.862Z,34.60
2023-10-26T07:20:45.081Z,30.77
2023-10-26T07:23:13.919Z,32.08
2023-10-26T07:25:43.508Z,34.05
2023-10-26T07:28:11.629Z,30.90
2023-10-26T07:30:44.020Z,30.07
2023-10-26T07:33:12.434Z,32.60
2023-10-26T07:35:43.442Z,30.63
2023-10-26T07:38:35.467Z,34.20
2023-10-26T07:41:03.642Z,29.15
2023-10-26T07:43:32.097Z,30.98
2023-10-26T07:46:00.187Z,28.95
2023-10-26T07:48:28.350Z,30.10
2023-10-26T07:50:57.733Z,32.97
2023-10-26T07:53:25.931Z,32.25
2023-10-26T07:55:57.872Z,30.40
2023-10-26T07:58:28.141Z,30.75
2023-10-26T08:00:57.017Z,25.90
2023-10-26T08:03:26.524Z,30.77
2023-10-26T08:05:58.547Z,29.25
2023-10-26T08:08:26.843Z,27.10
2023-10-26T08:10:55.314Z,30.27
2023-10-26T08:13:23.433Z,29.37
2023-10-26T08:16:11.970Z,29.10
2023-10-26T08:18:43.300Z,29.73
2023-10-26T08:21:11.588Z,32.05
2023-10-26T08:23:40.077Z,30.02
2023-10-26T08:26:09.066Z,29.70
2023-10-26T08:28:38.170Z,29.02
2023-10-26T08:31:07.970Z,36.63
2023-10-26T08:33:36.249Z,32.93
2023-10-26T08:36:05.723Z,30.27
2023-10-26T08:38:34.835Z,32.88
2023-10-26T08:41:02.945Z,30.27
2023-10-26T08:43:32.015Z,33.67
2023-10-26T08:46:01.510Z,30.60
2023-10-26T08:48:34.989Z,28.73
2023-10-26T08:51:03.317Z,31.70
2023-10-26T08:53:32.679Z,33.15
2023-10-26T08:56:00.957Z,29.75
2023-10-26T08:58:29.230Z,35.22
2023-10-26T09:00:57.696Z,28.40
2023-10-26T09:03:25.807Z,32.45
2023-10-26T09:05:56.515Z,30.08
2023-10-26T09:08:28.475Z,32.10
2023-10-26T09:10:57.454Z,32.55
2023-10-26T09:13:27.784Z,32.95
2023-10-26T09:15:58.592Z,30.27
2023-10-26T09:18:28.834Z,29.88
2023-10-26T09:21:08.455Z,30.75
2023-10-26T09:23:38.342Z,34.83
2023-10-26T09:26:09.015Z,32.08
2023-10-26T09:28:54.211Z,36.85
2023-10-26T09:31:22.947Z,34.85
2023-10-26T09:33:52.194Z,33.72
2023-10-26T09:36:22.455Z,34.00
2023-10-26T09:38:50.694Z,39.80
2023-10-26T09:41:21.114Z,35.72
2023-10-26T09:43:49.665Z,33.97
2023-10-26T09:46:19.035Z,33.50
2023-10-26T09:48:47.877Z,38.07
2023-10-26T09:51:17.395Z,37.67
2023-10-26T09:53:49.430Z,41.28
2023-10-26T09:56:24.557Z,37.13
2023-10-26T09:58:54.755Z,42.90
2023-10-26T10:01:33.775Z,41.42
2023-10-26T10:04:02.254Z,42.83
2023-10-26T10:06:50.854Z,42.28
2023-10-26T10:09:22.513Z,46.20
2023-10-26T10:12:27.117Z,43.78
2023-10-26T10:15:22.144Z,45.33
2023-10-26T10:18:16.610Z,49.45
2023-10-26T10:20:44.876Z,46.95
2023-10-26T10:23:31.510Z,43.13
2023-10-26T10:26:11.702Z,43.50
2023-10-26T10:28:52.885Z,46.20
2023-10-26T10:31:39.993Z,46.70
2023-10-26T10:34:14.291Z,43.90
2023-10-26T10:37:14.070Z,43.22
2023-10-26T10:40:16.589Z,45.00
2023-10-26T10:42:50.532Z,41.55
2023-10-26T10:45:19.380Z,40.97
2023-10-26T10:47:49.257Z,38.37
2023-10-26T10:50:18.785Z,41.65
2023-10-26T10:52:47.067Z,44.28
2023-10-26T10:55:21.303Z,44.42
2023-10-26T10:57:58.604Z,41.67
2023-10-26T11:00:27.697Z,37.83
2023-10-26T11:02:58.948Z,36.07
2023-10-26T11:05:38.426Z,35.65
2023-10-26T11:08:07.253Z,33.87
2023-10-26T11:10:35.615Z,36.05
2023-10-26T11:13:05.553Z,32.10
2023-10-26T11:15:34.492Z,31.73
2023-10-26T11:18:03.458Z,29.95
2023-10-26T11:20:37.748Z,32.05
2023-10-26T11:23:06.080Z,32.57
2023-10-26T11:25:34.551Z,33.57
2023-10-26T11:28:04.458Z,32.33
2023-10-26T11:30:46.470Z,32.92
2023-10-26T11:33:32.926Z,31.77
2023-10-26T11:36:01.329Z,36.38
2023-10-26T11:38:29.512Z,35.55
2023-10-26T11:40:57.664Z,41.17
2023-10-26T11:43:37.715Z,35.17
2023-10-26T11:46:06.038Z,36.85
2023-10-26T11:48:34.821Z,33.95
2023-10-26T11:51:07.670Z,35.00
2023-10-26T11:53:36.648Z,35.45
2023-10-26T11:56:05.477Z,37.70
2023-10-26T11:58:34.414Z,41.72
2023-10-26T12:01:04.847Z,41.15
2023-10-26T12:03:33.022Z,35.80
2023-10-26T12:06:01.141Z,38.05
2023-10-26T12:08:31.141Z,37.80
2023-10-26T12:10:59.230Z,37.75
2023-10-26T12:13:27.300Z,34.20
2023-10-26T12:15:55.404Z,40.30
2023-10-26T12:18:24.854Z,34.00
2023-10-26T12:20:53.056Z,33.75
2023-10-26T12:23:21.172Z,34.70
2023-10-26T12:25:49.259Z,30.63
2023-10-26T12:28:23.628Z,30.27
2023-10-26T12:30:54.803Z,29.47
2023-10-26T12:33:24.430Z,29.55
2023-10-26T12:35:52.726Z,28.17
2023-10-26T12:38:23.230Z,29.40
2023-10-26T12:40:51.331Z,41.50
2023-10-26T12:43:19.493Z,32.57
2023-10-26T12:45:47.645Z,27.90
2023-10-26T12:48:15.756Z,27.30
2023-10-26T12:50:45.228Z,28.40
2023-10-26T12:53:13.762Z,29.73
2023-10-26T12:55:42.184Z,26.75
2023-10-26T12:58:10.251Z,28.08
2023-10-26T13:00:38.486Z,27.95
2023-10-26T13:03:06.740Z,31.50
2023-10-26T13:05:34.855Z,29.58
2023-10-26T13:08:05.106Z,27.48
2023-10-26T13:10:33.254Z,28.08
2023-10-26T13:13:01.534Z,29.70
2023-10-26T13:15:29.744Z,26.10
2023-10-26T13:17:57.888Z,27.63
2023-10-26T13:20:27.071Z,42.72
2023-10-26T13:22:55.252Z,34.75
2023-10-26T13:25:25.199Z,36.75
2023-10-26T13:27:53.632Z,26.40
2023-10-26T13:30:21.865Z,30.10
2023-10-26T13:32:50.047Z,32.45
2023-10-26T13:35:18.245Z,29.25
2023-10-26T13:37:47.611Z,27.85
2023-10-26T13:40:15.769Z,29.23
2023-10-26T13:42:45.252Z,29.83
2023-10-26T13:45:15.558Z,27.65
2023-10-26T13:47:43.681Z,29.65
2023-10-26T13:50:11.925Z,27.47
2023-10-26T13:52:40.174Z,26.80
2023-10-26T13:55:08.795Z,27.77
2023-10-26T13:57:36.964Z,28.50
2023-10-26T14:00:09.962Z,26.70
2023-10-26T14:02:40.551Z,29.60
2023-10-26T14:05:28.949Z,30.30
2023-10-26T14:07:58.532Z,30.70
2023-10-26T14:10:27.223Z,29.00
2023-10-26T14:12:55.407Z,30.15
2023-10-26T14:15:25.216Z,29.37
2023-10-26T14:17:53.399Z,33.50
2023-10-26T14:20:21.733Z,31.48
2023-10-26T14:22:49.749Z,30.10
2023-10-26T14:25:17.829Z,31.20
2023-10-26T14:27:46.046Z,30.15
2023-10-26T14:30:14.868Z,30.45
2023-10-26T14:32:44.409Z,30.17
2023-10-26T14:35:12.585Z,28.98
2023-10-26T14:37:40.815Z,30.58
2023-10-26T14:40:10.024Z,34.63
2023-10-26T14:42:38.642Z,30.33
2023-10-26T14:45:07.731Z,29.27
2023-10-26T14:47:35.828Z,32.53
2023-10-26T14:50:05.701Z,33.47
2023-10-26T14:52:34.030Z,33.35
2023-10-26T14:55:02.596Z,32.30
2023-10-26T14:57:30.854Z,32.40
2023-10-26T14:59:58.990Z,33.58
2023-10-26T15:02:27.482Z,34.13
2023-10-26T15:04:55.771Z,34.28
2023-10-26T15:07:25.567Z,32.45
2023-10-26T15:10:21.875Z,33.67
2023-10-26T15:12:41.817Z,30.48
2023-10-26T15:15:10.634Z,30.07
2023-10-26T15:17:38.791Z,30.10
2023-10-26T15:20:08.344Z,29.50
2023-10-26T15:22:37.889Z,27.27
2023-10-26T15:25:06.743Z,29.08
2023-10-26T15:27:34.942Z,27.58
2023-10-26T15:30:03.574Z,30.63
2023-10-26T15:32:32.115Z,29.23
2023-10-26T15:35:00.296Z,30.58
2023-10-26T15:37:28.639Z,30.05
2023-10-26T15:39:58.515Z,30.92
2023-10-26T15:42:26.722Z,29.42
2023-10-26T15:44:55.772Z,28.52
2023-10-26T15:47:25.381Z,29.67
2023-10-26T15:49:53.830Z,29.30
2023-10-26T15:52:22.287Z,30.48
2023-10-26T15:54:50.405Z,31.95
2023-10-26T15:57:20.394Z,31.05
2023-10-26T15:59:49.134Z,29.75
2023-10-26T16:02:17.323Z,32.45
2023-10-26T16:04:45.587Z,33.38
2023-10-26T16:07:13.972Z,30.85
2023-10-26T16:09:42.074Z,31.88
2023-10-26T16:12:11.227Z,32.13
2023-10-26T16:14:40.729Z,32.87
2023-10-26T16:17:09.348Z,33.55
2023-10-26T16:19:37.483Z,36.13
2023-10-26T16:22:06.073Z,34.65
2023-10-26T16:24:34.246Z,36.28
2023-10-26T16:27:02.465Z,36.67
2023-10-26T16:29:30.530Z,34.17
2023-10-26T16:31:59.974Z,38.47
2023-10-26T16:34:28.190Z,38.80
2023-10-26T16:36:56.292Z,37.63
2023-10-26T16:39:24.897Z,34.63
2023-10-26T16:41:52.963Z,34.08
2023-10-26T16:44:21.035Z,35.30
2023-10-26T16:46:49.168Z,36.53
2023-10-26T16:49:18.890Z,35.88
2023-10-26T16:51:46.977Z,38.90
2023-10-26T16:54:15.286Z,38.67
2023-10-26T16:56:43.408Z,39.92
2023-10-26T16:59:11.521Z,41.53
2023-10-26T17:01:39.605Z,38.83
2023-10-26T17:04:07.895Z,37.80
2023-10-26T17:06:37.335Z,41.28
2023-10-26T17:09:05.852Z,39.05
2023-10-26T17:11:33.928Z,35.83
2023-10-26T17:14:02.012Z,41.63
2023-10-26T17:16:30.223Z,37.72
2023-10-26T17:18:58.329Z,39.63
2023-10-26T17:21:26.655Z,38.33
2023-10-26T17:23:56.123Z,37.40
2023-10-26T17:26:24.141Z,37.15
2023-10-26T17:28:52.227Z,37.83
2023-10-26T17:31:20.511Z,40.50
2023-10-26T17:33:49.423Z,40.95
2023-10-26T17:36:17.512Z,42.07
2023-10-26T17:38:45.544Z,43.55
2023-10-26T17:41:17.069Z,44.55
2023-10-26T17:43:45.180Z,45.90
2023-10-26T17:46:16.824Z,45.58
2023-10-26T17:48:45.728Z,45.22
2023-10-26T17:51:14.363Z,41.95
2023-10-26T17:53:42.969Z,44.65
2023-10-26T17:56:14.105Z,42.10
2023-10-26T17:58:44.111Z,41.60
2023-10-26T18:01:13.233Z,39.50
2023-10-26T18:03:41.593Z,37.78
2023-10-26T18:06:09.997Z,42.55
2023-10-26T18:08:39.241Z,40.03
2023-10-26T18:11:07.512Z,45.28
2023-10-26T18:13:36.444Z,39.80
2023-10-26T18:16:08.640Z,42.65
2023-10-26T18:18:37.627Z,44.00
2023-10-26T18:21:07.545Z,39.83
2023-10-26T18:23:37.344Z,39.42
2023-10-26T18:26:06.678Z,42.10
2023-10-26T18:28:36.152Z,40.83
2023-10-26T18:31:09.838Z,46.50
2023-10-26T18:33:39.306Z,44.15
2023-10-26T18:36:10.348Z,40.20
2023-10-26T18:38:39.175Z,45.23
2023-10-26T18:41:07.285Z,46.00
2023-10-26T18:43:36.259Z,39.03
2023-10-26T18:46:07.735Z,41.97
2023-10-26T18:48:37.447Z,37.55
2023-10-26T18:51:07.098Z,36.20
2023-10-26T18:53:36.448Z,38.60
2023-10-26T18:56:05.398Z,37.90
2023-10-26T18:58:34.690Z,38.72
2023-10-26T19:01:03.472Z,39.40
2023-10-26T19:03:35.905Z,41.17
2023-10-26T19:06:06.801Z,44.60
2023-10-26T19:08:34.867Z,47.55
2023-10-26T19:11:02.910Z,46.22
2023-10-26T19:13:31.341Z,47.65
2023-10-26T19:16:00.102Z,48.38
2023-10-26T19:18:28.223Z,45.00
2023-10-26T19:20:57.728Z,46.15
2023-10-26T19:23:25.822Z,47.63
2023-10-26T19:25:54.662Z,48.42
2023-10-26T19:28:23.349Z,44.67
2023-10-26T19:30:56.062Z,46.25
2023-10-26T19:33:25.733Z,43.08
2023-10-26T19:35:54.342Z,47.42
2023-10-26T19:38:24.007Z,46.88
2023-10-26T19:40:52.113Z,46.30
2023-10-26T19:43:20.201Z,47.00
2023-10-26T19:45:48.415Z,47.80
2023-10-26T19:48:16.530Z,47.03
2023-10-26T19:50:44.608Z,46.85
2023-10-26T19:53:13.227Z,47.70
2023-10-26T19:55:43.472Z,50.90
2023-10-26T19:58:11.576Z,52.58
2023-10-26T20:00:39.660Z,52.80
2023-10-26T20:03:07.954Z,53.30
2023-10-26T20:05:36.292Z,53.53
2023-10-26T20:08:04.330Z,59.58
2023-10-26T20:10:32.556Z,55.53
2023-10-26T20:13:02.041Z,59.28
2023-10-26T20:15:30.167Z,58.20
2023-10-26T20:17:58.269Z,58.45
2023-10-26T20:20:29.433Z,56.35
2023-10-26T20:22:57.633Z,53.53
2023-10-26T20:25:25.789Z,56.55
2023-10-26T20:27:54.399Z,51.83
2023-10-26T20:30:23.930Z,53.37
2023-10-26T20:32:52.015Z,52.63
2023-10-26T20:35:20.124Z,51.85
2023-10-26T20:37:48.308Z,52.45
2023-10-26T20:40:16.512Z,56.40
2023-10-26T20:42:46.347Z,52.58
2023-10-26T20:45:14.877Z,56.97
2023-10-26T20:47:44.432Z,51.90
2023-10-26T20:50:13.451Z,49.20
2023-10-26T20:52:41.504Z,54.30
2023-10-26T20:55:10.482Z,55.35
2023-10-26T20:57:38.598Z,57.13
2023-10-26T21:00:08.011Z,51.55
2023-10-26T21:02:37.228Z,55.13
2023-10-26T21:05:07.078Z,50.22
2023-10-26T21:07:35.205Z,54.80
2023-10-26T21:10:03.630Z,54.25
2023-10-26T21:12:31.746Z,51.92
2023-10-26T21:14:59.752Z,45.92
2023-10-26T21:17:29.981Z,48.60
2023-10-26T21:19:58.170Z,47.70
2023-10-26T21:22:27.636Z,50.67
2023-10-26T21:24:55.693Z,48.00
2023-10-26T21:27:24.567Z,49.05
2023-10-26T21:29:52.582Z,47.78
2023-10-26T21:32:20.729Z,49.53
2023-10-26T21:34:48.793Z,48.13
2023-10-26T21:37:17.365Z,43.75
2023-10-26T21:39:47.124Z,49.65
2023-10-26T21:42:15.266Z,42.70
2023-10-26T21:44:43.408Z,47.97
2023-10-26T21:47:12.067Z,49.95
2023-10-26T21:49:40.156Z,47.92
2023-10-26T21:52:08.248Z,49.92
2023-10-26T21:54:36.327Z,48.72
2023-10-26T21:57:06.524Z,45.60
2023-10-26T21:59:34.567Z,52.80
2023-10-26T22:02:03.031Z,50.20
2023-10-26T22:04:31.854Z,46.42
2023-10-26T22:07:00.015Z,49.88
2023-10-26T22:09:28.729Z,45.83
2023-10-26T22:11:58.068Z,45.85
2023-10-26T22:14:27.580Z,46.65
2023-10-26T22:16:55.667Z,47.73
2023-10-26T22:19:24.953Z,47.20
2023-10-26T22:21:53.193Z,44.17
2023-10-26T22:24:21.282Z,46.47
2023-10-26T22:26:49.330Z,49.08
2023-10-26T22:29:29.397Z,46.60
2023-10-26T22:31:59.940Z,44.47
2023-10-26T22:34:28.186Z,49.42
2023-10-26T22:36:56.374Z,43.80
2023-10-26T22:39:24.765Z,46.30
2023-10-26T22:41:52.811Z,44.50
2023-10-26T22:44:20.899Z,47.22
2023-10-26T22:46:48.931Z,45.55
2023-10-26T22:49:18.428Z,47.15
2023-10-26T22:51:46.493Z,44.30
2023-10-26T22:54:14.529Z,42.55
2023-10-26T22:56:42.786Z,44.38
2023-10-26T22:59:10.766Z,48.90
2023-10-26T23:01:38.805Z,46.00
2023-10-26T23:04:07.487Z,44.60
2023-10-26T23:06:36.931Z,39.28
2023-10-26T23:09:05.498Z,41.80
2023-10-26T23:11:33.767Z,45.27
2023-10-26T23:14:01.931Z,47.17
2023-10-26T23:16:30.085Z,43.58
2023-10-26T23:18:58.576Z,44.25
2023-10-26T23:21:27.405Z,44.47
2023-10-26T23:23:57.793Z,54.30
2023-10-26T23:26:25.875Z,45.63
2023-10-26T23:28:53.920Z,47.00
2023-10-26T23:31:22.015Z,43.40
2023-10-26T23:33:50.433Z,41.90
2023-10-26T23:36:18.565Z,43.70
2023-10-26T23:38:46.773Z,47.67
2023-10-26T23:41:16.261Z,41.33
2023-10-26T23:43:45.534Z,43.17
2023-10-26T23:46:13.685Z,39.72
2023-10-26T23:48:41.991Z,40.88
2023-10-26T23:51:10.119Z,39.83
2023-10-26T23:53:38.170Z,39.10
2023-10-26T23:56:07.487Z,42.80
2023-10-26T23:58:36.893Z,45.30
